x

Diamond Shoals (41025) Wave Buoy

1:50 - Sun 28th May 2017 All times are EDT. -4 hours from GMT.

  • Sig Wave height 3.3ft
  • Swell Direction
  • Peak Period 5s
  • Average Period 5s
  • Wind
    11mph, 13mph gusts
  • Sea Temp 77°f
  • Aire Temp 76°f
  • Sea Pressure 1012.4mb
  • Diamond Shoals
  • Diamond Shoals

More Historic Weather Station data

Upgrade to MSW Pro to gain access to the past 30 days of data for over 8000 Wavebouys and Weather Stations around the globe.

Join Pro

Comparision Forecast

View Surf forecast
   
dom 05/28 1:50 3.5ft 5s 5s 11 13 mph 1012.4mb 77f 76f
12:50 3.5ft 4s 4s 16 18 mph 1012.4mb 77f 77f
sáb 05/27 11:50 3.5ft 7s 4s 20 25 mph 1012.3mb 78f 77f
10:50 3.5ft 4s 4s 22 25 mph 1012.5mb 78f 77f
9:50 3.5ft 8s 4s 20 25 mph 1012.3mb 79f 78f
8:50 3ft 7s 4s 20 22 mph 1012.1mb 78f 78f
7:50 3ft 8s 4s 22 25 mph 1011.7mb 77f 78f
6:50 3.5ft 8s 4s 20 25 mph 1012.1mb 77f 78f
5:50 3.5ft 6s 4s 20 25 mph 1012.3mb 77f 78f
4:50 3.5ft 6s 4s 18 22 mph 1012.8mb 77f 78f
3:50 3ft 8s 4s 18 22 mph 1013.2mb 77f 77f
2:50 2.5ft 7s 4s 16 18 mph 1013.4mb 77f 77f
1:50 2.5ft 8s 5s 16 18 mph 1014mb 78f 76f
12:50 2.5ft 6s 5s 13 16 mph 1014.2mb 78f 77f
11:50 3ft 7s 5s 13 13 mph 1014.3mb 78f 76f
10:50 3ft 8s 5s 11 13 mph 1014.4mb 77f 76f
9:50 3ft 8s 5s 11 13 mph 1014.6mb 77f 76f
8:50 3.5ft 8s 5s 11 13 mph 1014.5mb 76f 76f
7:50 3.5ft 6s 5s 11 13 mph 1014.4mb 76f 76f
6:50 4ft 7s 5s 11 13 mph 1014.4mb 77f 76f
5:50 4.5ft 6s 5s 11 13 mph 1014.1mb 77f 76f
4:50 5ft 7s 5s 13 13 mph 1013.8mb 77f 75f
3:50 5ft 7s 5s 13 13 mph 1014mb 77f 75f
2:50 5ft 6s 5s 13 16 mph 1014.2mb 78f 75f
1:50 5ft 7s 5s 13 16 mph 1014.2mb 78f 75f
12:50 5ft 7s 5s 13 16 mph 1014.4mb 79f 75f
vie 05/26 11:50 5ft 7s 5s 16 18 mph 1014.4mb 79f 75f
10:50 5.5ft 6s 5s 18 20 mph 1014mb 79f 75f
9:50 6ft 7s 5s 20 22 mph 1013.4mb 79f 75f
8:50 6ft 7s 5s 20 22 mph 1012.6mb 80f 76f
7:50 6ft 7s 5s 20 25 mph 1012.2mb 80f 76f
6:50 6ft 7s 5s 20 25 mph 1011.9mb 80f 76f
5:50 6ft 7s 5s 22 25 mph 1011.3mb 80f 76f
4:50 6ft 8s 5s 20 25 mph 1011.1mb 80f 75f
3:50 6ft 7s 6s 22 25 mph 1011.1mb 80f 75f
2:50 6ft 8s 6s 22 25 mph 1011.5mb 79f 75f
12:50 7.5ft 8s 6s 22 27 mph 1011.8mb 79f 74f
11:50 8ft 8s 6s 25 29 mph 1011.8mb 79f 73f
10:50 6.5ft 8s 5s 22 27 mph 1011.5mb 79f 73f
9:50 8ft 8s 6s 22 27 mph 1011.6mb 78f 72f
8:50 7ft 8s 5s 25 31 mph 1011.3mb 79f 72f
7:50 8ft 8s 6s 27 31 mph 1010.8mb 78f 72f
6:50 8.5ft 8s 6s 27 34 mph 1010.4mb 78f 72f
5:50 8.5ft 8s 6s 29 36 mph 1009.6mb 78f 72f
4:50 9.5ft 8s 6s 29 34 mph 1008.4mb 78f 73f
3:50 8.5ft 8s 6s 34 38 mph 1007.8mb 78f 73f
2:50 9ft 8s 6s 34 40 mph 1007.5mb 78f 74f
1:50 9ft 9s 6s 31 38 mph 1007.4mb 78f 74f
12:50 9ft 8s 6s 31 40 mph 1007.1mb 78f 74f
jue 05/25 11:50 8.5ft 9s 6s 31 38 mph 1006.6mb 78f 74f
10:50 10ft 8s 6s 31 38 mph 1006mb 78f 74f
9:50 10ft 8s 6s 31 38 mph 1005mb 78f 73f
8:50 10ft 8s 6s 31 38 mph 1003.8mb 78f 73f
7:50 11.5ft 8s 7s 31 36 mph 1002.6mb 78f 73f
6:50 10.5ft 8s 6s 34 40 mph 1001.2mb 78f 71f
5:50 9ft 7s 6s 43 51 mph 1001mb 78f 75f
4:50 9ft 8s 6s 31 36 mph 1001.2mb 78f 76f
3:50 8.5ft 9s 6s 29 36 mph 1002.2mb 78f 76f
2:50 9ft 9s 6s 31 36 mph 1001.9mb 78f 76f
1:50 9ft 8s 6s 29 36 mph 1002.8mb 78f 76f
12:50 9.5ft 8s 6s 29 34 mph 1003.1mb 78f 76f
11:50 9ft 7s 6s 31 38 mph 1002.8mb 77f 78f
10:50 8.5ft 7s 6s 25 31 mph 1003mb 77f 77f
9:50 7.5ft 7s 6s 22 27 mph 1002.8mb 78f 77f
8:50 7ft 7s 5s 22 27 mph 1002.7mb 78f 77f
7:50 7ft 7s 5s 25 34 mph 1001.9mb 78f 77f
6:50 6.5ft 8s 5s 27 34 mph 1001.6mb 78f 77f
5:50 5ft 6s 5s 29 36 mph 1000.9mb 78f 77f
4:50 6ft 6s 5s 20 22 mph 1001.2mb 76f 74f
3:50 6ft 6s 5s 29 34 mph 1001.3mb 74f 76f
2:50 5.5ft 8s 5s 27 31 mph 1001.5mb 74f 76f
1:50 5.5ft 8s 5s 22 27 mph 1002.7mb 74f 74f
12:50 5ft 6s 5s 20 25 mph 1004.5mb 74f 74f
mié 05/24 11:50 5.5ft 6s 5s 18 22 mph 1005.2mb 75f 74f
10:50 5.5ft 6s 5s 18 20 mph 1005.8mb 75f 73f
9:50 5ft 6s 5s 18 22 mph 1006mb 75f 71f
8:50 4.5ft 8s 5s 25 31 mph 1005.6mb 75f 78f
7:50 3.5ft 7s 6s 16 25 mph 1005.2mb 75f 77f
6:50 4ft 8s 5s 11 13 mph 1005.6mb 76f 76f
5:50 3.5ft 8s 5s 11 13 mph 1005mb 75f 76f
4:50 3.5ft 8s 5s 9 11 mph 1005.7mb 75f 76f
3:50 4ft 8s 5s 9 11 mph 1005.9mb 75f 76f
2:50 4.5ft 8s 6s 11 13 mph 1006mb 75f 76f
1:50 4.5ft 8s 6s 7 9 mph 1006.3mb 75f 74f
12:50 4.5ft 8s 6s 9 11 mph 1006.5mb 75f 73f
11:50 4.5ft 8s 5s 9 11 mph 1006.4mb 75f 73f
10:50 4.5ft 8s 5s 11 13 mph 1006.6mb 74f 73f
9:50 5ft 7s 5s 11 11 mph 1006.4mb 74f 73f
8:50 5ft 8s 5s 13 13 mph 1005.5mb 74f 73f
7:50 6ft 7s 5s 16 18 mph 1004.8mb 74f 74f